createdAt,value
2022-11-02T00:04:45.199Z,101131.34
2022-11-02T00:09:46.664Z,101139.41
2022-11-02T00:14:48.156Z,101136.66
2022-11-02T00:19:49.662Z,101118.00
2022-11-02T00:24:51.499Z,101128.25
2022-11-02T00:29:53.944Z,101142.13
2022-11-02T00:34:55.407Z,101144.19
2022-11-02T00:39:56.942Z,101153.41
2022-11-02T00:44:58.478Z,101163.00
2022-11-02T00:50:00.003Z,101160.53
2022-11-02T00:55:01.482Z,101145.16
2022-11-02T01:00:04.005Z,101122.50
2022-11-02T01:05:08.162Z,101123.38
2022-11-02T01:10:10.989Z,101130.56
2022-11-02T01:15:12.473Z,101112.34
2022-11-02T01:20:14.392Z,101096.69
2022-11-02T01:25:16.420Z,101108.13
2022-11-02T01:30:17.972Z,101088.19
2022-11-02T01:35:19.452Z,101077.44
2022-11-02T01:40:20.948Z,101083.25
2022-11-02T01:45:22.611Z,101079.66
2022-11-02T01:50:27.425Z,101098.44
2022-11-02T01:55:32.917Z,101093.47
2022-11-02T02:00:34.404Z,101105.75
2022-11-02T02:05:40.815Z,101099.94
2022-11-02T02:10:42.269Z,101111.03
2022-11-02T02:16:00.684Z,101127.09
2022-11-02T02:21:14.530Z,101114.31
2022-11-02T02:26:55.326Z,101110.03
2022-11-02T02:32:10.003Z,101113.59
2022-11-02T02:37:19.444Z,101106.75
2022-11-02T02:42:31.316Z,101102.31
2022-11-02T02:47:35.516Z,101093.94
2022-11-02T02:52:37.826Z,101084.75
2022-11-02T02:57:39.791Z,101093.28
2022-11-02T03:02:43.929Z,101098.56
2022-11-02T03:07:45.482Z,101095.31
2022-11-02T03:13:23.512Z,101098.63
2022-11-02T03:18:43.679Z,101101.94
2022-11-02T03:23:58.397Z,101098.69
2022-11-02T03:28:59.825Z,101117.66
2022-11-02T03:34:09.399Z,101114.53
2022-11-02T03:39:13.672Z,101127.50
2022-11-02T03:44:20.261Z,101136.53
2022-11-02T03:49:23.804Z,101140.47
2022-11-02T03:54:51.713Z,101146.78
2022-11-02T03:59:53.207Z,101143.69
2022-11-02T04:04:54.744Z,101137.25
2022-11-02T04:09:56.185Z,101147.44
2022-11-02T04:14:57.642Z,101165.53
2022-11-02T04:19:59.152Z,101168.13
2022-11-02T04:25:15.751Z,101184.88
2022-11-02T04:30:22.324Z,101198.44
2022-11-02T04:35:23.773Z,101198.66
2022-11-02T04:40:25.444Z,101212.13
2022-11-02T04:45:26.918Z,101218.78
2022-11-02T04:50:28.890Z,101223.38
2022-11-02T04:55:31.195Z,101236.38
2022-11-02T05:00:32.674Z,101247.84
2022-11-02T05:05:34.148Z,101262.34
2022-11-02T05:10:35.777Z,101266.81
2022-11-02T05:15:39.767Z,101269.53
2022-11-02T05:20:41.374Z,101281.31
2022-11-02T05:25:42.813Z,101282.16
2022-11-02T05:30:44.323Z,101294.47
2022-11-02T05:35:46.446Z,101302.19
2022-11-02T05:40:55.762Z,101309.91
2022-11-02T05:46:02.161Z,101318.81
2022-11-02T05:51:04.349Z,101332.47
2022-11-02T05:56:07.696Z,101334.88
2022-11-02T06:01:10.784Z,101349.25
2022-11-02T06:06:12.461Z,101353.34
2022-11-02T06:11:14.358Z,101366.31
2022-11-02T06:16:22.397Z,101376.22
2022-11-02T06:21:24.670Z,101389.34
2022-11-02T06:26:26.153Z,101404.59
2022-11-02T06:31:27.618Z,101420.44
2022-11-02T06:36:29.080Z,101428.25
2022-11-02T06:41:30.544Z,101436.44
2022-11-02T06:46:32.278Z,101451.66
2022-11-02T06:51:33.725Z,101462.81
2022-11-02T06:56:35.180Z,101467.50
2022-11-02T07:01:36.822Z,101498.78
2022-11-02T07:06:38.355Z,101503.09
2022-11-02T07:11:39.825Z,101520.72
2022-11-02T07:16:41.293Z,101532.50
2022-11-02T07:21:45.107Z,101544.84
2022-11-02T07:26:50.222Z,101558.34
2022-11-02T07:31:51.751Z,101568.25
2022-11-02T07:36:55.044Z,101579.59
2022-11-02T07:41:56.566Z,101586.06
2022-11-02T07:46:58.088Z,101592.94
2022-11-02T07:51:59.585Z,101606.63
2022-11-02T07:57:01.125Z,101618.25
2022-11-02T08:02:03.133Z,101620.75
2022-11-02T08:07:05.122Z,101632.00
2022-11-02T08:12:06.642Z,101633.94
2022-11-02T08:17:08.418Z,101648.56
2022-11-02T08:22:10.781Z,101646.84
2022-11-02T08:27:12.260Z,101655.66
2022-11-02T08:32:13.731Z,101661.91
2022-11-02T08:37:15.198Z,101655.81
2022-11-02T08:42:17.379Z,101668.94
2022-11-02T08:47:18.903Z,101675.38
2022-11-02T08:52:20.376Z,101685.31
2022-11-02T08:57:21.825Z,101693.31
2022-11-02T09:02:23.423Z,101703.97
2022-11-02T09:07:24.882Z,101702.16
2022-11-02T09:12:26.347Z,101708.69
2022-11-02T09:17:29.235Z,101714.78
2022-11-02T09:22:30.742Z,101726.66
2022-11-02T09:27:32.220Z,101721.53
2022-11-02T09:32:34.413Z,101748.47
2022-11-02T09:37:36.531Z,101748.34
2022-11-02T09:42:46.578Z,101760.03
2022-11-02T09:48:17.995Z,101756.31
2022-11-02T09:53:31.671Z,101780.19
2022-11-02T09:58:40.897Z,101784.03
2022-11-02T10:04:33.270Z,101788.84
2022-11-02T10:09:49.960Z,101795.56
2022-11-02T10:15:22.917Z,101803.50
2022-11-02T10:20:39.325Z,101812.09
2022-11-02T10:25:41.953Z,101807.66
2022-11-02T10:30:44.500Z,101803.19
2022-11-02T10:36:30.591Z,101813.84
2022-11-02T10:41:37.859Z,101813.84
2022-11-02T10:46:57.918Z,101816.25
2022-11-02T10:51:59.703Z,101828.44
2022-11-02T10:57:11.222Z,101821.78
2022-11-02T11:02:15.171Z,101833.81
2022-11-02T11:07:22.221Z,101821.28
2022-11-02T11:12:30.549Z,101814.78
2022-11-02T11:23:25.374Z,101835.88
2022-11-02T11:28:37.916Z,101831.91
2022-11-02T11:33:49.105Z,101830.03
2022-11-02T11:38:52.532Z,101837.09
2022-11-02T11:43:54.543Z,101840.69
2022-11-02T11:48:59.653Z,101826.59
2022-11-02T11:54:14.947Z,101829.50
2022-11-02T11:59:22.307Z,101834.34
2022-11-02T12:04:37.471Z,101830.03
2022-11-02T12:10:09.713Z,101828.13
2022-11-02T12:15:38.596Z,101839.56
2022-11-02T12:21:15.734Z,101830.97
2022-11-02T12:26:42.062Z,101827.03
2022-11-02T12:31:54.485Z,101820.03
2022-11-02T12:37:40.047Z,101824.16
2022-11-02T12:43:21.661Z,101813.53
2022-11-02T12:48:49.561Z,101818.16
2022-11-02T12:54:13.941Z,101820.06
2022-11-02T12:59:26.956Z,101817.81
2022-11-02T13:04:39.640Z,101819.84
2022-11-02T13:09:51.944Z,101811.63
2022-11-02T13:14:56.739Z,101800.81
2022-11-02T13:20:01.875Z,101798.59
2022-11-02T13:25:15.637Z,101799.31
2022-11-02T13:30:19.023Z,101786.44
2022-11-02T13:35:27.793Z,101781.59
2022-11-02T13:40:47.481Z,101777.16
2022-11-02T13:45:57.324Z,101776.09
2022-11-02T13:51:06.212Z,101773.88
2022-11-02T13:56:21.290Z,101773.72
2022-11-02T14:01:23.521Z,101773.00
2022-11-02T14:06:25.941Z,101775.91
2022-11-02T14:11:42.512Z,101770.22
2022-11-02T14:16:58.641Z,101778.81
2022-11-02T14:22:00.355Z,101775.72
2022-11-02T14:27:13.646Z,101768.13
2022-11-02T14:32:21.010Z,101764.44
2022-11-02T14:37:41.112Z,101753.44
2022-11-02T14:42:52.650Z,101750.16
2022-11-02T14:48:04.248Z,101757.66
2022-11-02T14:53:16.714Z,101751.19
2022-11-02T14:58:20.371Z,101750.16
2022-11-02T15:03:24.660Z,101746.88
2022-11-02T15:08:31.421Z,101745.59
2022-11-02T15:13:36.095Z,101735.88
2022-11-02T15:18:38.908Z,101728.72
2022-11-02T15:24:12.343Z,101722.69
2022-11-02T15:29:26.935Z,101729.13
2022-11-02T15:34:43.525Z,101717.56
2022-11-02T15:39:52.847Z,101716.38
2022-11-02T15:45:48.794Z,101705.09
2022-11-02T15:50:53.198Z,101707.50
2022-11-02T15:56:28.512Z,101696.91
2022-11-02T16:01:30.143Z,101691.59
2022-11-02T16:06:41.590Z,101697.16
2022-11-02T16:11:43.050Z,101694.91
2022-11-02T16:16:49.656Z,101696.25
2022-11-02T16:21:51.169Z,101696.59
2022-11-02T16:26:52.804Z,101706.16
2022-11-02T16:31:54.315Z,101690.97
2022-11-02T16:36:56.828Z,101687.22
2022-11-02T16:42:00.486Z,101677.75
2022-11-02T16:47:08.137Z,101673.16
2022-11-02T16:52:20.469Z,101676.38
2022-11-02T16:57:25.201Z,101671.75
2022-11-02T17:02:39.610Z,101666.38
2022-11-02T17:07:46.795Z,101671.22
2022-11-02T17:12:49.237Z,101663.25
2022-11-02T17:17:50.998Z,101648.66
2022-11-02T17:22:58.717Z,101662.00
2022-11-02T17:28:03.223Z,101668.25
2022-11-02T17:33:29.578Z,101666.00
2022-11-02T17:43:57.825Z,101656.53
2022-11-02T17:48:59.316Z,101649.41
2022-11-02T17:54:00.791Z,101633.63
2022-11-02T17:59:02.282Z,101632.41
2022-11-02T18:04:03.808Z,101631.97
2022-11-02T18:09:11.216Z,101614.19
2022-11-02T18:14:16.773Z,101602.25
2022-11-02T18:19:19.310Z,101587.75
2022-11-02T18:24:20.803Z,101596.69
2022-11-02T18:29:22.305Z,101578.38
2022-11-02T18:34:25.894Z,101565.56
2022-11-02T18:39:28.953Z,101570.19
2022-11-02T18:44:30.420Z,101561.28
2022-11-02T18:49:31.907Z,101552.09
2022-11-02T18:54:33.504Z,101542.72
2022-11-02T18:59:36.084Z,101541.00
2022-11-02T19:04:37.777Z,101532.16
2022-11-02T19:09:39.300Z,101523.38
2022-11-02T19:14:44.505Z,101515.84
2022-11-02T19:19:46.700Z,101506.06
2022-11-02T19:24:51.423Z,101503.34
2022-11-02T19:29:53.026Z,101488.81
2022-11-02T19:34:54.499Z,101485.28
2022-11-02T19:39:56.001Z,101476.81
2022-11-02T19:44:57.483Z,101472.72
2022-11-02T19:49:58.947Z,101466.38
2022-11-02T19:55:00.470Z,101455.22
2022-11-02T20:00:01.965Z,101445.88
2022-11-02T20:05:03.545Z,101447.81
2022-11-02T20:10:05.244Z,101438.44
2022-11-02T20:15:07.932Z,101430.75
2022-11-02T20:20:09.618Z,101426.66
2022-11-02T20:25:11.093Z,101429.22
2022-11-02T20:30:12.638Z,101426.16
2022-11-02T20:35:14.181Z,101409.06
2022-11-02T20:40:15.972Z,101399.66
2022-11-02T20:45:17.919Z,101396.94
2022-11-02T20:50:24.739Z,101389.91
2022-11-02T20:55:27.488Z,101395.22
2022-11-02T21:00:28.985Z,101395.22
2022-11-02T21:05:30.786Z,101391.44
2022-11-02T21:10:32.251Z,101394.19
2022-11-02T21:15:38.513Z,101385.13
2022-11-02T21:20:42.635Z,101387.31
2022-11-02T21:25:46.366Z,101377.94
2022-11-02T21:30:49.653Z,101377.94
2022-11-02T21:35:53.783Z,101373.66
2022-11-02T21:41:01.311Z,101366.16
2022-11-02T21:46:05.628Z,101342.38
2022-11-02T21:51:15.904Z,101342.56
2022-11-02T21:56:26.864Z,101323.91
2022-11-02T22:01:49.389Z,101325.44
2022-11-02T22:06:52.337Z,101308.84
2022-11-02T22:12:12.893Z,101316.38
2022-11-02T22:17:43.229Z,101285.41
2022-11-02T22:22:35.842Z,101284.38
2022-11-02T22:27:37.301Z,101284.56
2022-11-02T22:32:38.748Z,101279.78
2022-11-02T22:37:58.765Z,101266.44
2022-11-02T22:43:00.255Z,101262.84
2022-11-02T22:48:01.900Z,101242.84
2022-11-02T22:53:09.272Z,101235.50
2022-11-02T22:58:12.780Z,101228.13
2022-11-02T23:03:19.109Z,101234.63
2022-11-02T23:08:20.893Z,101230.19
2022-11-02T23:13:22.748Z,101224.00
2022-11-02T23:18:44.179Z,101222.50
2022-11-02T23:24:04.291Z,101210.16
2022-11-02T23:29:24.300Z,101211.53
2022-11-02T23:34:25.761Z,101213.94
2022-11-02T23:39:45.771Z,101199.22
2022-11-02T23:44:47.245Z,101212.22
2022-11-02T23:49:48.711Z,101208.13
2022-11-02T23:55:08.492Z,101184.53
